createdAt,value
2023-01-18T00:00:52.354Z,4.47
2023-01-18T00:03:18.974Z,4.68
2023-01-18T00:05:45.528Z,4.30
2023-01-18T00:08:14.461Z,4.50
2023-01-18T00:10:40.979Z,3.95
2023-01-18T00:13:07.703Z,4.28
2023-01-18T00:15:35.067Z,4.10
2023-01-18T00:18:01.910Z,4.38
2023-01-18T00:20:29.529Z,4.53
2023-01-18T00:22:56.728Z,4.05
2023-01-18T00:25:24.392Z,4.38
2023-01-18T00:27:53.340Z,4.68
2023-01-18T00:30:22.490Z,4.50
2023-01-18T00:32:50.200Z,4.10
2023-01-18T00:35:16.866Z,4.20
2023-01-18T00:37:45.205Z,4.07
2023-01-18T00:40:11.993Z,4.30
2023-01-18T00:42:57.798Z,4.28
2023-01-18T00:45:24.624Z,4.05
2023-01-18T00:47:51.214Z,4.30
2023-01-18T00:50:19.587Z,3.70
2023-01-18T00:52:46.712Z,3.53
2023-01-18T00:55:14.384Z,3.92
2023-01-18T00:57:41.039Z,3.90
2023-01-18T01:00:12.424Z,3.90
2023-01-18T01:02:40.697Z,3.70
2023-01-18T01:05:39.804Z,3.60
2023-01-18T01:10:34.795Z,3.85
2023-01-18T01:13:19.947Z,3.38
2023-01-18T01:16:05.404Z,3.35
2023-01-18T01:18:50.602Z,3.20
2023-01-18T01:21:35.856Z,3.10
2023-01-18T01:24:21.635Z,3.30
2023-01-18T01:26:48.193Z,2.88
2023-01-18T01:29:15.994Z,3.13
2023-01-18T01:31:42.949Z,3.15
2023-01-18T01:34:09.855Z,3.40
2023-01-18T01:36:36.624Z,3.08
2023-01-18T01:39:03.459Z,3.30
2023-01-18T01:41:32.684Z,3.10
2023-01-18T01:46:50.915Z,3.05
2023-01-18T01:49:33.819Z,3.53
2023-01-18T01:52:08.736Z,3.10
2023-01-18T01:54:42.889Z,3.35
2023-01-18T01:57:14.643Z,2.75
2023-01-18T01:59:45.684Z,2.97
2023-01-18T02:02:12.354Z,2.55
2023-01-18T02:04:44.222Z,3.08
2023-01-18T02:07:13.901Z,3.03
2023-01-18T02:09:40.852Z,2.67
2023-01-18T02:12:07.412Z,2.88
2023-01-18T02:14:33.999Z,2.60
2023-01-18T02:17:19.224Z,3.28
2023-01-18T02:20:24.337Z,3.17
2023-01-18T02:23:09.610Z,3.58
2023-01-18T02:26:14.072Z,2.90
2023-01-18T02:28:41.379Z,3.50
2023-01-18T02:31:25.981Z,3.35
2023-01-18T02:34:14.175Z,2.75
2023-01-18T02:36:53.046Z,2.95
2023-01-18T02:39:38.304Z,2.60
2023-01-18T02:42:35.825Z,3.08
2023-01-18T02:45:23.946Z,3.20
2023-01-18T02:47:50.699Z,3.35
2023-01-18T02:50:23.396Z,2.92
2023-01-18T02:52:51.963Z,3.05
2023-01-18T02:56:01.982Z,3.00
2023-01-18T02:58:35.017Z,3.00
2023-01-18T03:01:07.201Z,2.80
2023-01-18T03:03:35.117Z,2.92
2023-01-18T03:06:03.310Z,3.00
2023-01-18T03:08:38.955Z,3.10
2023-01-18T03:11:12.683Z,3.17
2023-01-18T03:13:58.142Z,3.55
2023-01-18T03:16:26.522Z,3.10
2023-01-18T03:19:31.568Z,3.13
2023-01-18T03:21:58.977Z,3.10
2023-01-18T03:24:28.520Z,3.15
2023-01-18T03:26:56.868Z,3.45
2023-01-18T03:29:42.652Z,3.23
2023-01-18T03:32:27.748Z,3.40
2023-01-18T03:35:08.144Z,3.67
2023-01-18T03:37:40.807Z,3.28
2023-01-18T03:40:10.944Z,3.30
2023-01-18T03:42:59.853Z,3.33
2023-01-18T03:45:33.028Z,3.60
2023-01-18T03:48:01.279Z,3.30
2023-01-18T03:51:03.449Z,3.53
2023-01-18T03:53:39.204Z,3.17
2023-01-18T03:56:22.003Z,3.60
2023-01-18T03:58:51.545Z,3.47
2023-01-18T04:01:18.367Z,3.50
2023-01-18T04:03:44.886Z,3.22
2023-01-18T04:06:11.459Z,3.60
2023-01-18T04:08:37.963Z,3.20
2023-01-18T04:11:04.618Z,3.80
2023-01-18T04:13:31.317Z,3.85
2023-01-18T04:15:57.900Z,3.80
2023-01-18T04:18:24.401Z,3.42
2023-01-18T04:20:56.330Z,3.63
2023-01-18T04:23:23.971Z,3.60
2023-01-18T04:25:51.241Z,4.22
2023-01-18T04:28:25.321Z,3.70
2023-01-18T04:30:55.658Z,3.53
2023-01-18T04:33:23.340Z,4.00
2023-01-18T04:35:50.380Z,4.15
2023-01-18T04:38:17.041Z,3.72
2023-01-18T04:40:43.684Z,4.20
2023-01-18T04:43:10.192Z,4.18
2023-01-18T04:45:36.800Z,3.90
2023-01-18T04:48:03.476Z,3.70
2023-01-18T04:50:30.229Z,4.07
2023-01-18T04:52:58.169Z,3.70
2023-01-18T04:55:24.960Z,3.60
2023-01-18T04:57:56.913Z,3.85
2023-01-18T05:00:24.170Z,3.85
2023-01-18T05:02:51.045Z,3.80
2023-01-18T05:05:18.237Z,3.72
2023-01-18T05:07:44.852Z,3.97
2023-01-18T05:10:12.256Z,4.35
2023-01-18T05:12:38.916Z,3.55
2023-01-18T05:15:05.980Z,4.45
2023-01-18T05:17:34.633Z,4.28
2023-01-18T05:20:02.093Z,4.35
2023-01-18T05:22:29.185Z,3.80
2023-01-18T05:24:55.770Z,4.10
2023-01-18T05:27:22.385Z,4.40
2023-01-18T05:29:48.879Z,3.95
2023-01-18T05:32:15.412Z,5.63
2023-01-18T05:34:42.427Z,6.32
2023-01-18T05:37:09.094Z,5.70
2023-01-18T05:39:35.779Z,4.72
2023-01-18T05:42:02.373Z,4.95
2023-01-18T05:44:29.042Z,4.68
2023-01-18T05:46:55.727Z,5.20
2023-01-18T05:49:22.302Z,5.68
2023-01-18T05:51:49.022Z,5.38
2023-01-18T05:54:15.698Z,5.13
2023-01-18T05:56:42.269Z,6.07
2023-01-18T05:59:09.052Z,6.25
2023-01-18T06:01:37.510Z,6.80
2023-01-18T06:04:23.025Z,6.13
2023-01-18T06:06:52.782Z,5.57
2023-01-18T06:09:19.276Z,6.07
2023-01-18T06:11:45.778Z,6.05
2023-01-18T06:14:12.277Z,7.43
2023-01-18T06:16:38.983Z,7.18
2023-01-18T06:19:05.699Z,7.30
2023-01-18T06:21:32.259Z,5.55
2023-01-18T06:23:58.733Z,5.68
2023-01-18T06:26:25.230Z,6.80
2023-01-18T06:28:51.889Z,5.63
2023-01-18T06:31:29.848Z,6.20
2023-01-18T06:33:56.990Z,5.40
2023-01-18T06:36:23.565Z,6.88
2023-01-18T06:38:50.109Z,5.72
2023-01-18T06:41:17.221Z,6.18
2023-01-18T06:43:43.827Z,5.63
2023-01-18T06:46:11.575Z,5.30
2023-01-18T06:48:38.620Z,5.20
2023-01-18T06:51:05.293Z,5.57
2023-01-18T06:53:31.833Z,5.30
2023-01-18T06:55:59.860Z,5.43
2023-01-18T06:58:27.146Z,4.32
2023-01-18T07:00:58.156Z,5.45
2023-01-18T07:03:26.146Z,5.35
2023-01-18T07:05:55.808Z,4.60
2023-01-18T07:08:23.342Z,4.80
2023-01-18T07:10:52.435Z,4.78
2023-01-18T07:13:21.264Z,4.90
2023-01-18T07:16:01.084Z,5.53
2023-01-18T07:18:29.663Z,6.70
2023-01-18T07:21:00.434Z,5.10
2023-01-18T07:23:28.131Z,5.13
2023-01-18T07:25:59.615Z,4.57
2023-01-18T07:28:26.612Z,4.90
2023-01-18T07:30:53.103Z,4.90
2023-01-18T07:33:19.694Z,5.20
2023-01-18T07:35:46.206Z,5.13
2023-01-18T07:38:12.755Z,4.75
2023-01-18T07:40:39.279Z,5.05
2023-01-18T07:43:05.788Z,4.90
2023-01-18T07:45:32.290Z,5.47
2023-01-18T07:47:58.779Z,5.40
2023-01-18T07:50:25.224Z,5.90
2023-01-18T07:52:51.605Z,6.07
2023-01-18T07:55:18.029Z,5.72
2023-01-18T07:57:44.500Z,5.75
2023-01-18T08:00:11.541Z,5.65
2023-01-18T08:02:41.093Z,5.22
2023-01-18T08:05:09.781Z,6.13
2023-01-18T08:07:36.723Z,5.28
2023-01-18T08:10:03.184Z,5.65
2023-01-18T08:12:29.567Z,5.80
2023-01-18T08:14:55.990Z,5.70
2023-01-18T08:17:22.441Z,5.97
2023-01-18T08:19:48.936Z,6.15
2023-01-18T08:22:15.347Z,6.43
2023-01-18T08:24:41.781Z,5.97
2023-01-18T08:27:08.225Z,5.70
2023-01-18T08:29:34.716Z,5.95
2023-01-18T08:32:02.392Z,5.18
2023-01-18T08:34:28.811Z,5.72
2023-01-18T08:36:55.242Z,5.00
2023-01-18T08:39:21.756Z,6.22
2023-01-18T08:41:49.415Z,5.68
2023-01-18T08:44:15.872Z,5.70
2023-01-18T08:46:42.386Z,5.82
2023-01-18T08:49:09.782Z,5.18
2023-01-18T08:51:36.237Z,4.90
2023-01-18T08:54:02.687Z,4.97
2023-01-18T08:56:29.248Z,4.93
2023-01-18T08:58:56.273Z,4.70
2023-01-18T09:01:23.493Z,4.32
2023-01-18T09:03:50.477Z,4.97
2023-01-18T09:06:17.145Z,5.00
2023-01-18T09:08:43.673Z,4.28
2023-01-18T09:11:10.468Z,4.82
2023-01-18T09:13:47.871Z,4.20
2023-01-18T09:16:25.364Z,4.43
2023-01-18T09:18:52.000Z,4.47
2023-01-18T09:21:18.504Z,4.00
2023-01-18T09:23:45.533Z,4.13
2023-01-18T09:26:16.856Z,4.35
2023-01-18T09:28:44.748Z,3.88
2023-01-18T09:31:12.279Z,3.78
2023-01-18T09:33:41.171Z,4.03
2023-01-18T09:36:10.411Z,3.42
2023-01-18T09:38:38.288Z,3.50
2023-01-18T09:41:37.436Z,3.30
2023-01-18T09:46:36.728Z,3.75
2023-01-18T09:49:06.010Z,3.60
2023-01-18T09:51:43.167Z,3.78
2023-01-18T09:54:35.834Z,3.45
2023-01-18T09:57:10.973Z,3.55
2023-01-18T09:59:58.428Z,3.65
2023-01-18T10:02:32.319Z,3.97
2023-01-18T10:05:02.395Z,2.92
2023-01-18T10:07:30.218Z,3.35
2023-01-18T10:09:58.876Z,3.30
2023-01-18T10:12:30.036Z,3.38
2023-01-18T10:15:02.010Z,2.80
2023-01-18T10:17:37.094Z,3.00
2023-01-18T10:20:14.002Z,3.30
2023-01-18T10:22:49.719Z,2.95
2023-01-18T10:25:39.348Z,3.03
2023-01-18T10:28:25.992Z,2.90
2023-01-18T10:31:15.865Z,3.20
2023-01-18T10:33:44.417Z,3.08
2023-01-18T10:36:16.114Z,3.30
2023-01-18T10:38:42.998Z,3.45
2023-01-18T10:41:18.919Z,3.33
2023-01-18T10:43:45.455Z,3.47
2023-01-18T10:46:19.770Z,3.10
2023-01-18T10:48:51.399Z,3.00
2023-01-18T10:51:35.025Z,2.83
2023-01-18T10:54:27.919Z,3.50
2023-01-18T10:57:03.147Z,3.08
2023-01-18T10:59:37.924Z,3.40
2023-01-18T11:02:05.001Z,3.30
2023-01-18T11:04:32.532Z,3.60
2023-01-18T11:07:00.678Z,3.08
2023-01-18T11:09:48.362Z,3.50
2023-01-18T11:12:38.343Z,3.22
2023-01-18T11:15:14.117Z,3.13
2023-01-18T11:17:44.455Z,2.97
2023-01-18T11:20:33.812Z,3.30
2023-01-18T11:23:02.852Z,3.50
2023-01-18T11:25:52.803Z,3.30
2023-01-18T11:28:23.877Z,3.13
2023-01-18T11:31:06.932Z,4.15
2023-01-18T11:33:33.763Z,3.13
2023-01-18T11:36:02.109Z,3.28
2023-01-18T11:38:33.187Z,3.67
2023-01-18T11:41:25.647Z,2.90
2023-01-18T11:44:03.983Z,2.53
2023-01-18T11:46:41.109Z,2.17
2023-01-18T11:49:24.113Z,2.75
2023-01-18T11:52:00.143Z,2.97
2023-01-18T11:54:38.889Z,2.38
2023-01-18T11:57:06.730Z,2.10
2023-01-18T11:59:51.459Z,2.15
2023-01-18T12:02:46.168Z,3.10
2023-01-18T12:05:22.336Z,3.47
2023-01-18T12:08:01.108Z,2.30
2023-01-18T12:10:33.979Z,2.63
2023-01-18T12:13:03.348Z,2.75
2023-01-18T12:18:57.217Z,2.85
2023-01-18T12:21:54.753Z,2.35
2023-01-18T12:24:41.425Z,2.50
2023-01-18T12:27:23.868Z,2.60
2023-01-18T12:30:02.397Z,2.95
2023-01-18T12:32:47.605Z,2.88
2023-01-18T12:35:28.189Z,2.83
2023-01-18T12:38:01.246Z,2.90
2023-01-18T12:40:52.773Z,3.13
2023-01-18T12:43:25.200Z,2.88
2023-01-18T12:46:04.665Z,2.42
2023-01-18T12:48:36.093Z,3.22
2023-01-18T12:51:13.495Z,3.10
2023-01-18T12:53:50.902Z,3.35
2023-01-18T12:56:31.180Z,3.13
2023-01-18T12:58:59.574Z,3.47
2023-01-18T13:01:30.258Z,3.40
2023-01-18T13:04:02.011Z,3.45
2023-01-18T13:06:28.785Z,3.38
2023-01-18T13:08:59.784Z,4.07
2023-01-18T13:11:37.470Z,3.95
2023-01-18T13:14:25.667Z,3.85
2023-01-18T13:17:16.918Z,4.38
2023-01-18T13:19:51.313Z,4.60
2023-01-18T13:22:35.084Z,5.32
2023-01-18T13:25:19.709Z,6.10
2023-01-18T13:27:57.170Z,5.72
2023-01-18T13:30:24.738Z,5.18
2023-01-18T13:32:51.454Z,5.25
2023-01-18T13:35:25.619Z,5.38
2023-01-18T13:37:57.808Z,5.40
2023-01-18T13:40:51.464Z,5.90
2023-01-18T13:43:36.112Z,5.43
2023-01-18T13:46:08.596Z,5.63
2023-01-18T13:48:50.319Z,5.60
2023-01-18T13:51:47.027Z,6.93
2023-01-18T13:54:40.832Z,6.20
2023-01-18T13:57:09.590Z,6.80
2023-01-18T13:59:38.789Z,6.53
2023-01-18T14:02:11.973Z,7.95
2023-01-18T14:04:39.324Z,7.82
2023-01-18T14:07:06.648Z,7.00
2023-01-18T14:09:40.019Z,7.07
2023-01-18T14:12:07.318Z,7.22
2023-01-18T14:14:36.112Z,6.93
2023-01-18T14:17:15.658Z,6.63
2023-01-18T14:19:48.107Z,7.72
2023-01-18T14:22:30.160Z,6.57
2023-01-18T14:25:27.571Z,7.65
2023-01-18T14:28:08.131Z,7.65
2023-01-18T14:30:36.341Z,7.10
2023-01-18T14:33:36.317Z,6.57
2023-01-18T14:36:03.703Z,7.28
2023-01-18T14:38:30.875Z,6.85
2023-01-18T14:41:07.825Z,6.75
2023-01-18T14:43:42.663Z,6.45
2023-01-18T14:46:18.791Z,6.70
2023-01-18T14:48:51.506Z,6.82
2023-01-18T14:51:22.094Z,6.13
2023-01-18T14:53:52.732Z,6.25
2023-01-18T14:56:24.330Z,6.00
2023-01-18T14:58:54.664Z,6.22
2023-01-18T15:01:37.933Z,7.07
2023-01-18T15:04:07.269Z,7.18
2023-01-18T15:06:40.325Z,7.95
2023-01-18T15:09:08.162Z,8.05
2023-01-18T15:11:36.319Z,8.30
2023-01-18T15:14:04.453Z,8.88
2023-01-18T15:16:31.193Z,9.75
2023-01-18T15:18:58.789Z,9.50
2023-01-18T15:21:28.808Z,9.27
2023-01-18T15:24:02.906Z,9.52
2023-01-18T15:26:56.728Z,9.65
2023-01-18T15:29:26.370Z,9.20
2023-01-18T15:31:55.647Z,9.38
2023-01-18T15:34:44.159Z,10.35
2023-01-18T15:37:15.442Z,9.50
2023-01-18T15:40:02.032Z,9.63
2023-01-18T15:42:33.134Z,9.77
2023-01-18T15:44:59.886Z,8.88
2023-01-18T15:47:32.663Z,8.35
2023-01-18T15:50:00.666Z,8.82
2023-01-18T15:52:39.093Z,8.82
2023-01-18T15:55:07.373Z,8.07
2023-01-18T15:57:36.809Z,8.95
2023-01-18T16:00:05.757Z,8.55
2023-01-18T16:02:32.383Z,8.90
2023-01-18T16:05:14.132Z,8.27
2023-01-18T16:07:43.767Z,9.27
2023-01-18T16:10:28.219Z,8.23
2023-01-18T16:12:56.325Z,8.45
2023-01-18T16:15:27.258Z,8.68
2023-01-18T16:18:06.297Z,9.70
2023-01-18T16:23:10.047Z,8.93
2023-01-18T16:25:36.996Z,9.73
2023-01-18T16:28:04.087Z,9.25
2023-01-18T16:30:33.228Z,8.20
2023-01-18T16:33:12.717Z,9.00
2023-01-18T16:35:41.591Z,9.27
2023-01-18T16:38:12.348Z,9.43
2023-01-18T16:40:40.525Z,8.30
2023-01-18T16:43:18.973Z,8.40
2023-01-18T16:45:47.368Z,7.72
2023-01-18T16:48:24.172Z,8.10
2023-01-18T16:50:51.739Z,8.45
2023-01-18T16:53:18.395Z,7.88
2023-01-18T16:55:45.574Z,8.57
2023-01-18T16:58:16.387Z,9.43
2023-01-18T17:01:06.346Z,9.15
2023-01-18T17:03:34.330Z,9.52
2023-01-18T17:06:00.942Z,9.48
2023-01-18T17:08:27.512Z,10.80
2023-01-18T17:10:54.725Z,15.52
2023-01-18T17:13:22.103Z,23.85
2023-01-18T17:15:48.854Z,17.13
2023-01-18T17:18:20.603Z,23.38
2023-01-18T17:20:47.161Z,31.10
2023-01-18T17:23:14.108Z,23.42
2023-01-18T17:25:41.211Z,13.10
2023-01-18T17:28:08.505Z,10.68
2023-01-18T17:30:35.242Z,14.27
2023-01-18T17:33:02.107Z,32.50
2023-01-18T17:35:28.815Z,50.85
2023-01-18T17:38:01.128Z,31.38
2023-01-18T17:40:42.508Z,30.60
2023-01-18T17:43:15.128Z,28.10
2023-01-18T17:45:43.967Z,25.33
2023-01-18T17:48:12.902Z,19.67
2023-01-18T17:50:40.480Z,12.77
2023-01-18T17:53:07.877Z,10.05
2023-01-18T17:55:35.190Z,9.57
2023-01-18T17:58:02.013Z,8.40
2023-01-18T18:00:28.425Z,7.93
2023-01-18T18:02:57.164Z,7.88
2023-01-18T18:05:24.123Z,7.45
2023-01-18T18:07:50.716Z,7.15
2023-01-18T18:10:17.495Z,7.80
2023-01-18T18:12:44.236Z,7.25
2023-01-18T18:15:10.845Z,7.70
2023-01-18T18:17:37.417Z,7.13
2023-01-18T18:20:04.298Z,7.35
2023-01-18T18:22:31.652Z,7.45
2023-01-18T18:24:58.090Z,6.28
2023-01-18T18:27:26.608Z,6.90
2023-01-18T18:29:57.694Z,6.40
2023-01-18T18:32:24.171Z,21.20
2023-01-18T18:34:50.689Z,12.52
2023-01-18T18:37:19.065Z,9.32
2023-01-18T18:39:45.985Z,5.43
2023-01-18T18:42:12.459Z,4.90
2023-01-18T18:44:38.920Z,4.30
2023-01-18T18:47:06.865Z,4.45
2023-01-18T18:49:34.057Z,4.53
2023-01-18T18:52:00.507Z,4.68
2023-01-18T18:54:26.930Z,4.28
2023-01-18T18:56:53.385Z,3.90
2023-01-18T18:59:20.900Z,4.25
2023-01-18T19:01:51.546Z,3.90
2023-01-18T19:04:18.603Z,4.00
2023-01-18T19:06:45.072Z,3.70
2023-01-18T19:09:11.564Z,3.78
2023-01-18T19:11:41.589Z,3.78
2023-01-18T19:14:10.837Z,3.83
2023-01-18T19:16:37.434Z,3.72
2023-01-18T19:19:03.973Z,3.67
2023-01-18T19:21:30.409Z,3.42
2023-01-18T19:23:56.918Z,3.33
2023-01-18T19:26:23.429Z,3.58
2023-01-18T19:28:49.917Z,3.00
2023-01-18T19:31:17.420Z,3.20
2023-01-18T19:33:43.869Z,3.90
2023-01-18T19:36:12.875Z,3.58
2023-01-18T19:38:46.154Z,4.20
2023-01-18T19:41:13.894Z,4.72
2023-01-18T19:43:40.452Z,3.83
2023-01-18T19:46:08.244Z,3.80
2023-01-18T19:48:34.954Z,4.32
2023-01-18T19:51:20.705Z,5.00
2023-01-18T19:53:48.510Z,4.55
2023-01-18T19:56:15.084Z,4.75
2023-01-18T19:58:41.506Z,4.30
2023-01-18T20:01:26.671Z,4.78
2023-01-18T20:03:57.043Z,4.57
2023-01-18T20:06:23.721Z,4.30
2023-01-18T20:08:51.480Z,4.30
2023-01-18T20:11:18.411Z,4.82
2023-01-18T20:13:48.969Z,4.75
2023-01-18T20:16:17.449Z,4.47
2023-01-18T20:18:43.933Z,4.50
2023-01-18T20:21:15.109Z,4.45
2023-01-18T20:23:43.974Z,4.85
2023-01-18T20:26:11.894Z,5.35
2023-01-18T20:28:38.367Z,4.47
2023-01-18T20:31:05.932Z,5.18
2023-01-18T20:33:33.410Z,4.90
2023-01-18T20:36:01.597Z,4.82
2023-01-18T20:38:28.086Z,4.78
2023-01-18T20:40:54.957Z,5.22
2023-01-18T20:43:21.456Z,7.80
2023-01-18T20:45:47.977Z,7.47
2023-01-18T20:48:14.597Z,7.22
2023-01-18T20:50:41.171Z,5.65
2023-01-18T20:53:07.674Z,5.43
2023-01-18T20:55:36.187Z,6.30
2023-01-18T20:58:02.847Z,6.30
2023-01-18T21:00:29.466Z,6.53
2023-01-18T21:02:56.034Z,7.13
2023-01-18T21:05:22.671Z,7.32
2023-01-18T21:07:49.116Z,6.72
2023-01-18T21:10:15.994Z,6.10
2023-01-18T21:12:42.439Z,6.25
2023-01-18T21:15:09.282Z,6.75
2023-01-18T21:17:36.267Z,6.57
2023-01-18T21:20:02.804Z,6.93
2023-01-18T21:22:29.228Z,5.82
2023-01-18T21:24:57.187Z,5.00
2023-01-18T21:27:26.401Z,5.75
2023-01-18T21:29:53.520Z,6.03
2023-01-18T21:32:20.239Z,6.88
2023-01-18T21:34:46.854Z,6.03
2023-01-18T21:37:13.320Z,6.10
2023-01-18T21:39:39.802Z,6.57
2023-01-18T21:42:24.694Z,6.13
2023-01-18T21:45:09.767Z,6.72
2023-01-18T21:47:36.205Z,7.20
2023-01-18T21:50:21.335Z,6.47
2023-01-18T21:53:06.387Z,5.75
2023-01-18T21:55:40.085Z,6.32
2023-01-18T21:58:24.938Z,5.95
2023-01-18T22:00:51.500Z,6.47
2023-01-18T22:03:18.459Z,5.93
2023-01-18T22:05:44.952Z,5.93
2023-01-18T22:08:11.587Z,5.78
2023-01-18T22:10:38.274Z,6.97
2023-01-18T22:13:04.880Z,6.78
2023-01-18T22:15:31.320Z,5.25
2023-01-18T22:17:58.413Z,5.85
2023-01-18T22:20:25.285Z,6.10
2023-01-18T22:22:51.897Z,6.15
2023-01-18T22:25:18.430Z,5.70
2023-01-18T22:27:45.008Z,6.10
2023-01-18T22:30:12.143Z,6.40
2023-01-18T22:32:38.568Z,7.15
2023-01-18T22:35:05.327Z,6.60
2023-01-18T22:37:31.892Z,6.53
2023-01-18T22:39:58.402Z,6.47
2023-01-18T22:42:25.160Z,6.93
2023-01-18T22:44:51.638Z,6.40
2023-01-18T22:47:18.065Z,6.07
2023-01-18T22:49:44.457Z,5.95
2023-01-18T22:52:10.862Z,6.13
2023-01-18T22:54:37.312Z,5.60
2023-01-18T22:57:03.857Z,5.35
2023-01-18T22:59:30.312Z,6.75
2023-01-18T23:01:57.395Z,5.65
2023-01-18T23:04:24.271Z,5.90
2023-01-18T23:06:54.280Z,5.85
2023-01-18T23:09:20.736Z,5.43
2023-01-18T23:11:51.493Z,5.47
2023-01-18T23:14:36.264Z,5.75
2023-01-18T23:17:21.268Z,5.60
2023-01-18T23:19:47.720Z,5.95
2023-01-18T23:22:14.190Z,6.22
2023-01-18T23:24:40.612Z,6.30
2023-01-18T23:27:09.552Z,6.10
2023-01-18T23:29:36.243Z,6.13
2023-01-18T23:32:02.833Z,6.68
2023-01-18T23:34:29.379Z,6.97
2023-01-18T23:36:55.826Z,7.03
2023-01-18T23:39:41.141Z,7.72
2023-01-18T23:42:25.984Z,7.00
2023-01-18T23:45:11.220Z,7.30
2023-01-18T23:47:56.203Z,6.85
2023-01-18T23:50:41.547Z,7.22
2023-01-18T23:53:30.700Z,6.38
2023-01-18T23:58:24.239Z,7.10
